Time;durP1;ratioP1;P1;durP2;ratioP2;P2;SDS_P1;SDS_P2;PMS_P1;PMS_P2;Temp;Humidity;BMP_temperature;BMP_pressure;BME280_temperature;BME280_humidity;BME280_pressure;Samples;Min_cycle;Max_cycle;Signal;HPM_P1;HPM_P2
2023/02/03 00:00:09;;;;;;;;;;;;;;;;;;6330335;22;19907;-83
2023/02/03 00:02:38;;;;;;;;;;;;;;;;;;6305393;22;19906;-82
2023/02/03 00:05:03;;;;;;;;;;;;;;;;;;6324079;22;19907;-81
2023/02/03 00:07:28;;;;;;;;;;;;;;;;;;6319069;22;19931;-82
2023/02/03 00:09:54;;;;;;;;;;;;;;;;;;6315410;22;19955;-82
2023/02/03 00:12:19;;;;;;;;;;;;;;;;;;6316128;22;19907;-81
2023/02/03 00:14:45;;;;;;;;;;;;;;;;;;6315833;22;19907;-82
2023/02/03 00:17:10;;;;;;;;;;;;;;;;;;6321146;22;19907;-83
2023/02/03 00:19:36;;;;;;;;;;;;;;;;;;6322441;22;19942;-82
2023/02/03 00:22:01;;;;;;;;;;;;;;;;;;6320256;22;19907;-81
2023/02/03 00:24:26;;;;;;;;;;;;;;;;;;6319968;22;19911;-82
2023/02/03 00:26:52;;;;;;;;;;;;;;;;;;6288439;22;20297;-80
2023/02/03 00:29:20;;;;;;;;;;;;;;;;;;6317026;22;19911;-82
2023/02/03 00:31:45;;;;;;;;;;;;;;;;;;6286641;22;19914;-80
2023/02/03 00:34:11;;;;;;;;;;;;;;;;;;6312432;22;19907;-79
2023/02/03 00:36:38;;;;;;;;;;;;;;;;;;6308397;22;19907;-78
2023/02/03 00:39:03;;;;;;;;;;;;;;;;;;6307363;22;20311;-78
2023/02/03 00:41:29;;;;;;;;;;;;;;;;;;6281329;22;19934;-80
2023/02/03 00:43:54;;;;;;;;;;;;;;;;;;6281645;22;19907;-79
2023/02/03 00:46:20;;;;;;;;;;;;;;;;;;6281302;22;19914;-78
2023/02/03 00:48:45;;;;;;;;;;;;;;;;;;6307248;22;19918;-79
2023/02/03 00:51:11;;;;;;;;;;;;;;;;;;6306842;22;19911;-79
2023/02/03 00:53:37;;;;;;;;;;;;;;;;;;6308875;22;19953;-78
2023/02/03 00:56:02;;;;;;;;;;;;;;;;;;6281030;22;19907;-78
2023/02/03 00:58:27;;;;;;;;;;;;;;;;;;6281264;22;19934;-79
2023/02/03 01:00:53;;;;;;;;;;;;;;;;;;6309819;22;19950;-78
2023/02/03 01:03:18;;;;;;;;;;;;;;;;;;6282156;22;20369;-77
2023/02/03 01:05:44;;;;;;;;;;;;;;;;;;6312020;22;19907;-80
2023/02/03 01:08:09;;;;;;;;;;;;;;;;;;6327493;22;19932;-79
2023/02/03 01:10:34;;;;;;;;;;;;;;;;;;6317433;22;19907;-78
2023/02/03 01:13:00;;;;;;;;;;;;;;;;;;6306912;22;20332;-78
2023/02/03 01:15:26;;;;;;;;;;;;;;;;;;6308067;22;19914;-78
2023/02/03 01:17:52;;;;;;;;;;;;;;;;;;6281289;22;19907;-79
2023/02/03 01:20:17;;;;;;;;;;;;;;;;;;6306972;22;19927;-81
2023/02/03 01:22:42;;;;;;;;;;;;;;;;;;6310839;22;19907;-81
2023/02/03 01:25:08;;;;;;;;;;;;;;;;;;6309701;22;19910;-80
2023/02/03 01:27:33;;;;;;;;;;;;;;;;;;6309926;22;20399;-79
2023/02/03 01:29:58;;;;;;;;;;;;;;;;;;6308525;22;19911;-79
2023/02/03 01:32:24;;;;;;;;;;;;;;;;;;6306863;22;20324;-77
2023/02/03 01:34:49;;;;;;;;;;;;;;;;;;6307052;22;19978;-79
2023/02/03 01:37:16;;;;;;;;;;;;;;;;;;6309061;22;19907;-78
2023/02/03 01:39:42;;;;;;;;;;;;;;;;;;6308855;22;19992;-79
2023/02/03 01:42:07;;;;;;;;;;;;;;;;;;6307669;22;19911;-78
2023/02/03 01:44:32;;;;;;;;;;;;;;;;;;6282243;22;20331;-77
2023/02/03 01:46:58;;;;;;;;;;;;;;;;;;6309259;22;19913;-79
2023/02/03 01:49:23;;;;;;;;;;;;;;;;;;6307273;22;19929;-79
2023/02/03 01:51:48;;;;;;;;;;;;;;;;;;6308639;22;19934;-80
2023/02/03 01:54:14;;;;;;;;;;;;;;;;;;6309021;22;19914;-79
2023/02/03 01:56:39;;;;;;;;;;;;;;;;;;6306332;22;19907;-80
2023/02/03 01:59:05;;;;;;;;;;;;;;;;;;6307620;22;20346;-79
2023/02/03 02:01:30;;;;;;;;;;;;;;;;;;6308788;22;19903;-80
2023/02/03 02:03:56;;;;;;;;;;;;;;;;;;6307114;22;19972;-80
2023/02/03 02:06:21;;;;;;;;;;;;;;;;;;6306547;22;19929;-80
2023/02/03 02:08:46;;;;;;;;;;;;;;;;;;6306942;22;19922;-80
2023/02/03 02:11:12;;;;;;;;;;;;;;;;;;6307201;22;19914;-80
2023/02/03 02:13:39;;;;;;;;;;;;;;;;;;6308343;22;19961;-81
2023/02/03 02:16:04;;;;;;;;;;;;;;;;;;6308472;22;19907;-80
2023/02/03 02:18:30;;;;;;;;;;;;;;;;;;6307128;22;19914;-80
2023/02/03 02:20:55;;;;;;;;;;;;;;;;;;6307527;22;19978;-80
2023/02/03 02:23:21;;;;;;;;;;;;;;;;;;6317025;22;19898;-83
2023/02/03 02:25:46;;;;;;;;;;;;;;;;;;6308921;22;19910;-83
2023/02/03 02:28:11;;;;;;;;;;;;;;;;;;6336442;22;19911;-83
2023/02/03 02:30:37;;;;;;;;;;;;;;;;;;6337143;22;19895;-83
2023/02/03 02:33:04;;;;;;;;;;;;;;;;;;6311909;22;19902;-83
2023/02/03 02:35:30;;;;;;;;;;;;;;;;;;6247128;22;19963;-84
2023/02/03 02:37:55;;;;;;;;;;;;;;;;;;6300612;22;19911;-81
2023/02/03 02:40:21;;;;;;;;;;;;;;;;;;6298920;22;19951;-83
2023/02/03 02:42:49;;;;;;;;;;;;;;;;;;6263726;23;19907;-82
2023/02/03 02:45:15;;;;;;;;;;;;;;;;;;6241066;23;19942;-81
2023/02/03 02:47:40;;;;;;;;;;;;;;;;;;6216582;23;19952;-79
2023/02/03 02:50:06;;;;;;;;;;;;;;;;;;6243317;23;19912;-81
2023/02/03 02:52:32;;;;;;;;;;;;;;;;;;6242456;23;19908;-83
2023/02/03 02:54:57;;;;;;;;;;;;;;;;;;6267094;23;19907;-83
2023/02/03 02:57:24;;;;;;;;;;;;;;;;;;6265369;23;19916;-83
2023/02/03 02:59:50;;;;;;;;;;;;;;;;;;6267341;23;19914;-84
2023/02/03 03:02:16;;;;;;;;;;;;;;;;;;6266607;22;19907;-83
2023/02/03 03:04:41;;;;;;;;;;;;;;;;;;6242158;23;19947;-83
2023/02/03 03:07:07;;;;;;;;;;;;;;;;;;6270670;23;19911;-83
2023/02/03 03:09:34;;;;;;;;;;;;;;;;;;6296047;22;19902;-83
2023/02/03 03:12:00;;;;;;;;;;;;;;;;;;6271315;23;19908;-83
2023/02/03 03:14:29;;;;;;;;;;;;;;;;;;6236213;23;19908;-82
2023/02/03 03:16:55;;;;;;;;;;;;;;;;;;6237667;23;19935;-83
2023/02/03 03:19:20;;;;;;;;;;;;;;;;;;6266418;23;19907;-83
2023/02/03 03:21:46;;;;;;;;;;;;;;;;;;6269254;23;19908;-83
2023/02/03 03:24:12;;;;;;;;;;;;;;;;;;6269756;23;19934;-82
2023/02/03 03:26:37;;;;;;;;;;;;;;;;;;6293766;22;19915;-83
2023/02/03 03:29:03;;;;;;;;;;;;;;;;;;6269427;23;19914;-83
2023/02/03 03:31:29;;;;;;;;;;;;;;;;;;6272895;23;19907;-82
2023/02/03 03:33:54;;;;;;;;;;;;;;;;;;6246941;23;19931;-84
2023/02/03 03:36:20;;;;;;;;;;;;;;;;;;6239485;23;19919;-82
2023/02/03 03:38:45;;;;;;;;;;;;;;;;;;6233715;23;19907;-82
2023/02/03 03:41:13;;;;;;;;;;;;;;;;;;6286267;22;19907;-85
2023/02/03 03:43:42;;;;;;;;;;;;;;;;;;6262697;22;19914;-84
2023/02/03 03:46:09;;;;;;;;;;;;;;;;;;6264869;23;19918;-84
2023/02/03 03:48:37;;;;;;;;;;;;;;;;;;6219204;23;19907;-84
2023/02/03 03:51:07;;;;;;;;;;;;;;;;;;6295513;22;19907;-83
2023/02/03 03:53:35;;;;;;;;;;;;;;;;;;6244576;23;19934;-84
2023/02/03 03:56:12;;;;;;;;;;;;;;;;;;6271380;23;19914;-84
2023/02/03 03:58:43;;;;;;;;;;;;;;;;;;6273845;22;19911;-84
2023/02/03 04:01:11;;;;;;;;;;;;;;;;;;6273262;22;19907;-85
2023/02/03 04:03:37;;;;;;;;;;;;;;;;;;6248043;23;20431;-85
2023/02/03 04:06:06;;;;;;;;;;;;;;;;;;6275400;22;19895;-84
2023/02/03 04:08:34;;;;;;;;;;;;;;;;;;6246873;22;19911;-84
2023/02/03 04:11:03;;;;;;;;;;;;;;;;;;6266667;22;19912;-82
2023/02/03 04:13:37;;;;;;;;;;;;;;;;;;6243982;22;19912;-84
2023/02/03 04:16:02;;;;;;;;;;;;;;;;;;6194164;22;19900;-83
2023/02/03 04:18:28;;;;;;;;;;;;;;;;;;6244807;22;19912;-83
2023/02/03 04:20:56;;;;;;;;;;;;;;;;;;6233987;22;19930;-84
2023/02/03 04:28:29;;;;;;;;;;;;;;;;;;6274514;22;19943;-85
2023/02/03 04:30:57;;;;;;;;;;;;;;;;;;6226962;22;19935;-83
2023/02/03 04:33:26;;;;;;;;;;;;;;;;;;6274539;22;19903;-81
2023/02/03 04:35:57;;;;;;;;;;;;;;;;;;6268254;22;19923;-83
2023/02/03 04:38:33;;;;;;;;;;;;;;;;;;6243697;23;20300;-83
2023/02/03 04:41:08;;;;;;;;;;;;;;;;;;6269588;22;19922;-82
2023/02/03 04:43:36;;;;;;;;;;;;;;;;;;6269182;23;19951;-82
2023/02/03 04:46:09;;;;;;;;;;;;;;;;;;6218888;23;19970;-83
2023/02/03 04:48:56;;;;;;;;;;;;;;;;;;6272835;23;19922;-82
2023/02/03 04:51:28;;;;;;;;;;;;;;;;;;6273167;22;19906;-83
2023/02/03 04:54:19;;;;;;;;;;;;;;;;;;6251489;22;19943;-84
2023/02/03 05:05:20;;;;;;;;;;;;;;;;;;6312604;22;19930;-81
2023/02/03 05:07:48;;;;;;;;;;;;;;;;;;6259451;22;19933;-85
2023/02/03 05:10:22;;;;;;;;;;;;;;;;;;6237285;22;19904;-85
2023/02/03 05:12:48;;;;;;;;;;;;;;;;;;6259744;22;19908;-83
2023/02/03 05:15:14;;;;;;;;;;;;;;;;;;6243960;22;19998;-84
2023/02/03 05:17:57;;;;;;;;;;;;;;;;;;6298943;22;19971;-83
2023/02/03 05:20:27;;;;;;;;;;;;;;;;;;6255569;22;19912;-83
2023/02/03 05:22:52;;;;;;;;;;;;;;;;;;6279807;22;19923;-84
2023/02/03 05:25:18;;;;;;;;;;;;;;;;;;6305031;22;19929;-83
2023/02/03 05:27:44;;;;;;;;;;;;;;;;;;6305466;22;19911;-84
2023/02/03 05:30:09;;;;;;;;;;;;;;;;;;6305838;22;19950;-82
2023/02/03 05:32:35;;;;;;;;;;;;;;;;;;6253700;22;19938;-82
2023/02/03 05:35:01;;;;;;;;;;;;;;;;;;6303131;22;19922;-83
2023/02/03 05:37:29;;;;;;;;;;;;;;;;;;6276706;22;19923;-82
2023/02/03 05:41:51;;;;;;;;;;;;;;;;;;6301024;22;19930;-82
2023/02/03 05:42:41;;;;;;;;;;;;;;;;;;6296730;22;19908;-82
2023/02/03 05:45:06;;;;;;;;;;;;;;;;;;6271335;22;19908;-83
2023/02/03 05:47:32;;;;;;;;;;;;;;;;;;6297450;22;19981;-82
2023/02/03 05:49:57;;;;;;;;;;;;;;;;;;6245352;22;19943;-83
2023/02/03 05:52:23;;;;;;;;;;;;;;;;;;6297642;22;19907;-83
2023/02/03 05:54:49;;;;;;;;;;;;;;;;;;6272410;22;19904;-83
2023/02/03 05:57:18;;;;;;;;;;;;;;;;;;6273531;22;19907;-83
2023/02/03 05:59:43;;;;;;;;;;;;;;;;;;6298924;22;19907;-83
2023/02/03 06:02:12;;;;;;;;;;;;;;;;;;6302268;22;19891;-84
2023/02/03 06:04:43;;;;;;;;;;;;;;;;;;6306200;22;19906;-82
2023/02/03 06:07:09;;;;;;;;;;;;;;;;;;6305351;22;19978;-83
2023/02/03 06:09:38;;;;;;;;;;;;;;;;;;6303312;22;19911;-82
2023/02/03 06:12:03;;;;;;;;;;;;;;;;;;6273485;22;19947;-83
2023/02/03 06:14:29;;;;;;;;;;;;;;;;;;6272178;22;19915;-84
2023/02/03 06:17:00;;;;;;;;;;;;;;;;;;6251069;22;19937;-83
2023/02/03 06:19:31;;;;;;;;;;;;;;;;;;6301963;22;19914;-83
2023/02/03 06:21:58;;;;;;;;;;;;;;;;;;6277584;22;19931;-82
2023/02/03 06:24:25;;;;;;;;;;;;;;;;;;6302630;22;19930;-83
2023/02/03 06:26:51;;;;;;;;;;;;;;;;;;6304323;22;19891;-83
2023/02/03 06:29:16;;;;;;;;;;;;;;;;;;6304698;22;19934;-84
2023/02/03 06:31:44;;;;;;;;;;;;;;;;;;6305698;22;19911;-83
2023/02/03 06:34:10;;;;;;;;;;;;;;;;;;6278413;22;19907;-82
2023/02/03 06:36:36;;;;;;;;;;;;;;;;;;6278038;22;19892;-83
2023/02/03 06:39:02;;;;;;;;;;;;;;;;;;6304876;22;19942;-84
2023/02/03 06:41:29;;;;;;;;;;;;;;;;;;6304776;22;19962;-83
2023/02/03 06:43:57;;;;;;;;;;;;;;;;;;6252221;22;19899;-84
2023/02/03 06:46:34;;;;;;;;;;;;;;;;;;6303099;22;19907;-84
2023/02/03 06:49:06;;;;;;;;;;;;;;;;;;6277819;22;19907;-84
2023/02/03 06:51:32;;;;;;;;;;;;;;;;;;6305001;22;19908;-84
2023/02/03 06:54:02;;;;;;;;;;;;;;;;;;6279997;22;19916;-83
2023/02/03 06:56:27;;;;;;;;;;;;;;;;;;6301170;22;19891;-84
2023/02/03 06:58:53;;;;;;;;;;;;;;;;;;6271790;22;19919;-83
2023/02/03 07:01:22;;;;;;;;;;;;;;;;;;6275182;22;19927;-81
2023/02/03 07:03:47;;;;;;;;;;;;;;;;;;6297902;22;19918;-83
2023/02/03 07:06:15;;;;;;;;;;;;;;;;;;6297146;22;19907;-82
2023/02/03 07:08:44;;;;;;;;;;;;;;;;;;6298296;22;19911;-84
2023/02/03 07:11:09;;;;;;;;;;;;;;;;;;6301252;22;19904;-82
2023/02/03 07:13:35;;;;;;;;;;;;;;;;;;6275177;22;19907;-83
2023/02/03 07:16:01;;;;;;;;;;;;;;;;;;6301295;22;19907;-83
2023/02/03 07:18:30;;;;;;;;;;;;;;;;;;6275063;22;19917;-83
2023/02/03 07:20:56;;;;;;;;;;;;;;;;;;6275276;22;19903;-83
2023/02/03 07:23:22;;;;;;;;;;;;;;;;;;6301687;22;19914;-82
2023/02/03 07:25:48;;;;;;;;;;;;;;;;;;6303935;22;19930;-83
2023/02/03 07:28:14;;;;;;;;;;;;;;;;;;6253018;22;19922;-83
2023/02/03 07:30:53;;;;;;;;;;;;;;;;;;6276475;22;19914;-84
2023/02/03 07:33:24;;;;;;;;;;;;;;;;;;6276475;22;19907;-83
2023/02/03 07:35:50;;;;;;;;;;;;;;;;;;6305121;22;19916;-83
2023/02/03 07:38:19;;;;;;;;;;;;;;;;;;6251502;22;19899;-82
2023/02/03 07:40:44;;;;;;;;;;;;;;;;;;6277100;22;19946;-82
2023/02/03 07:43:10;;;;;;;;;;;;;;;;;;6302225;22;19918;-83
2023/02/03 07:45:36;;;;;;;;;;;;;;;;;;6275575;22;19908;-81
2023/02/03 07:48:01;;;;;;;;;;;;;;;;;;6249718;22;19907;-81
2023/02/03 07:50:27;;;;;;;;;;;;;;;;;;6301665;22;19926;-82
2023/02/03 07:53:00;;;;;;;;;;;;;;;;;;6297816;22;19958;-82
2023/02/03 07:55:26;;;;;;;;;;;;;;;;;;6299026;22;19892;-82
2023/02/03 07:57:54;;;;;;;;;;;;;;;;;;6298809;22;19907;-83
2023/02/03 08:00:20;;;;;;;;;;;;;;;;;;6298198;22;19907;-82
2023/02/03 08:02:46;;;;;;;;;;;;;;;;;;6246049;22;19919;-82
2023/02/03 08:05:12;;;;;;;;;;;;;;;;;;6295623;22;19926;-80
2023/02/03 08:07:38;;;;;;;;;;;;;;;;;;6247290;22;19907;-84
2023/02/03 08:10:14;;;;;;;;;;;;;;;;;;6304677;22;19903;-83
2023/02/03 08:12:41;;;;;;;;;;;;;;;;;;6278479;22;19912;-84
2023/02/03 08:15:07;;;;;;;;;;;;;;;;;;6304957;22;19899;-82
2023/02/03 08:17:35;;;;;;;;;;;;;;;;;;6304856;22;19927;-82
2023/02/03 08:20:01;;;;;;;;;;;;;;;;;;6305089;22;19919;-83
2023/02/03 08:22:29;;;;;;;;;;;;;;;;;;6277641;22;19912;-83
2023/02/03 08:24:54;;;;;;;;;;;;;;;;;;6278716;22;19957;-83
2023/02/03 08:27:20;;;;;;;;;;;;;;;;;;6278037;22;19898;-83
2023/02/03 08:29:46;;;;;;;;;;;;;;;;;;6304495;22;19918;-83
2023/02/03 08:32:11;;;;;;;;;;;;;;;;;;6304521;22;19934;-82
2023/02/03 08:34:37;;;;;;;;;;;;;;;;;;6253576;22;19915;-84
2023/02/03 08:42:26;;;;;;;;;;;;;;;;;;6290388;22;19907;-82
2023/02/03 08:44:52;;;;;;;;;;;;;;;;;;6237648;22;19919;-82
2023/02/03 08:47:17;;;;;;;;;;;;;;;;;;6273634;22;19908;-83
2023/02/03 08:49:43;;;;;;;;;;;;;;;;;;6221196;23;19917;-82
2023/02/03 08:52:09;;;;;;;;;;;;;;;;;;6223099;22;19892;-83
2023/02/03 08:54:34;;;;;;;;;;;;;;;;;;6222595;23;19908;-83
2023/02/03 08:57:00;;;;;;;;;;;;;;;;;;6275524;23;19908;-83
2023/02/03 08:59:26;;;;;;;;;;;;;;;;;;6275525;22;19959;-83
2023/02/03 09:01:52;;;;;;;;;;;;;;;;;;6245062;23;19908;-84
2023/02/03 09:04:18;;;;;;;;;;;;;;;;;;6199738;23;19911;-85
2023/02/03 09:06:43;;;;;;;;;;;;;;;;;;6252598;22;19992;-82
2023/02/03 09:09:09;;;;;;;;;;;;;;;;;;6228311;22;19919;-88
2023/02/03 09:22:18;;;;;;;;;;;;;;;;;;6283408;22;19904;-83
2023/02/03 09:24:44;;;;;;;;;;;;;;;;;;6269861;22;19903;-83
2023/02/03 09:27:09;;;;;;;;;;;;;;;;;;6253793;22;19925;-83
2023/02/03 09:29:35;;;;;;;;;;;;;;;;;;6280657;22;19903;-85
2023/02/03 09:32:07;;;;;;;;;;;;;;;;;;6243693;22;19919;-80
2023/02/03 09:34:33;;;;;;;;;;;;;;;;;;6234886;23;19908;-83
2023/02/03 09:36:58;;;;;;;;;;;;;;;;;;6203372;23;20246;-80
2023/02/03 09:39:27;;;;;;;;;;;;;;;;;;6218492;23;19912;-83
2023/02/03 09:41:55;;;;;;;;;;;;;;;;;;6244522;23;19908;-83
2023/02/03 09:44:21;;;;;;;;;;;;;;;;;;6245630;22;19974;-84
2023/02/03 09:46:47;;;;;;;;;;;;;;;;;;6198602;23;19903;-84
2023/02/03 09:49:16;;;;;;;;;;;;;;;;;;6223714;23;19938;-84
2023/02/03 09:51:42;;;;;;;;;;;;;;;;;;6262129;22;19907;-84
2023/02/03 09:54:08;;;;;;;;;;;;;;;;;;6252226;22;19951;-82
2023/02/03 09:56:33;;;;;;;;;;;;;;;;;;6278028;22;19914;-84
2023/02/03 09:58:59;;;;;;;;;;;;;;;;;;6278200;22;19907;-84
2023/02/03 10:01:30;;;;;;;;;;;;;;;;;;6305493;22;19957;-84
2023/02/03 10:03:56;;;;;;;;;;;;;;;;;;6303082;22;19912;-84
2023/02/03 10:06:22;;;;;;;;;;;;;;;;;;6303553;22;19907;-84
2023/02/03 10:08:47;;;;;;;;;;;;;;;;;;6253477;22;19915;-84
2023/02/03 10:11:13;;;;;;;;;;;;;;;;;;6278956;22;19919;-84
2023/02/03 10:13:39;;;;;;;;;;;;;;;;;;6255040;22;19935;-84
2023/02/03 10:16:05;;;;;;;;;;;;;;;;;;6306930;22;19899;-84
2023/02/03 10:18:31;;;;;;;;;;;;;;;;;;6257597;22;19947;-82
2023/02/03 10:21:00;;;;;;;;;;;;;;;;;;6348906;22;19934;-83
2023/02/03 10:23:26;;;;;;;;;;;;;;;;;;6246104;22;19930;-84
2023/02/03 11:49:57;;;;;;;;;;;;;;;;;;6299119;22;19918;-86
2023/02/03 11:52:44;;;;;;;;;;;;;;;;;;6295402;22;19918;-82
2023/02/03 11:55:10;;;;;;;;;;;;;;;;;;6316664;22;19907;-83
2023/02/03 11:57:36;;;;;;;;;;;;;;;;;;6269384;22;19960;-83
2023/02/03 12:00:01;;;;;;;;;;;;;;;;;;6322710;22;19907;-82
2023/02/03 12:02:27;;;;;;;;;;;;;;;;;;6320939;22;20335;-83
2023/02/03 12:04:52;;;;;;;;;;;;;;;;;;6285902;22;20321;-82
2023/02/03 12:07:18;;;;;;;;;;;;;;;;;;6309614;22;19921;-81
2023/02/03 12:09:46;;;;;;;;;;;;;;;;;;6310304;22;19919;-82
2023/02/03 12:12:11;;;;;;;;;;;;;;;;;;6289048;22;20332;-82
2023/02/03 12:14:40;;;;;;;;;;;;;;;;;;6285966;22;19929;-82
2023/02/03 12:17:35;;;;;;;;;;;;;;;;;;6273070;22;19969;-81
2023/02/03 12:20:01;;;;;;;;;;;;;;;;;;6260431;22;19910;-81
2023/02/03 12:22:26;;;;;;;;;;;;;;;;;;6313748;22;19941;-81
2023/02/03 12:24:53;;;;;;;;;;;;;;;;;;6288920;22;19934;-81
2023/02/03 12:27:19;;;;;;;;;;;;;;;;;;6317582;22;19907;-80
2023/02/03 12:29:44;;;;;;;;;;;;;;;;;;6318522;22;19950;-81
2023/02/03 12:32:10;;;;;;;;;;;;;;;;;;6318507;22;19907;-80
2023/02/03 12:34:36;;;;;;;;;;;;;;;;;;6291019;22;19907;-81
2023/02/03 12:37:01;;;;;;;;;;;;;;;;;;6321139;22;19907;-81
2023/02/03 12:39:27;;;;;;;;;;;;;;;;;;6313471;22;19907;-79
2023/02/03 12:41:52;;;;;;;;;;;;;;;;;;6312752;22;19907;-80
2023/02/03 12:44:17;;;;;;;;;;;;;;;;;;6284262;22;19949;-79
2023/02/03 12:46:43;;;;;;;;;;;;;;;;;;6313146;22;19910;-81
2023/02/03 12:49:09;;;;;;;;;;;;;;;;;;6316072;22;19964;-80
2023/02/03 12:51:34;;;;;;;;;;;;;;;;;;6316849;22;19934;-78
2023/02/03 12:54:00;;;;;;;;;;;;;;;;;;6311668;22;19910;-78
2023/02/03 12:56:25;;;;;;;;;;;;;;;;;;6308403;22;19982;-78
2023/02/03 12:58:51;;;;;;;;;;;;;;;;;;6312540;22;19948;-78
2023/02/03 13:01:16;;;;;;;;;;;;;;;;;;6313698;22;19914;-78
2023/02/03 13:03:42;;;;;;;;;;;;;;;;;;6316518;22;20233;-84
2023/02/03 13:06:08;;;;;;;;;;;;;;;;;;6293256;22;19907;-80
2023/02/03 13:08:34;;;;;;;;;;;;;;;;;;6315823;22;19917;-82
2023/02/03 13:10:59;;;;;;;;;;;;;;;;;;6321544;22;19914;-81
2023/02/03 13:13:25;;;;;;;;;;;;;;;;;;6320959;22;19907;-82
2023/02/03 13:15:51;;;;;;;;;;;;;;;;;;6314133;22;19954;-81
2023/02/03 13:18:16;;;;;;;;;;;;;;;;;;6311455;22;19911;-81
2023/02/03 13:20:42;;;;;;;;;;;;;;;;;;6312462;22;20030;-81
2023/02/03 13:23:09;;;;;;;;;;;;;;;;;;6316464;22;19914;-82
2023/02/03 13:25:34;;;;;;;;;;;;;;;;;;6321342;22;19933;-83
2023/02/03 13:28:00;;;;;;;;;;;;;;;;;;6325799;22;19911;-83
2023/02/03 13:30:26;;;;;;;;;;;;;;;;;;6325183;22;19911;-83
2023/02/03 13:32:54;;;;;;;;;;;;;;;;;;6271207;22;19903;-82
2023/02/03 13:35:19;;;;;;;;;;;;;;;;;;6324904;22;19906;-82
2023/02/03 13:37:45;;;;;;;;;;;;;;;;;;6327139;22;20339;-82
2023/02/03 13:40:10;;;;;;;;;;;;;;;;;;6300676;22;20299;-83
2023/02/03 13:42:36;;;;;;;;;;;;;;;;;;6302889;22;19911;-83
2023/02/03 13:45:12;;;;;;;;;;;;;;;;;;6329770;22;19891;-83
2023/02/03 13:47:49;;;;;;;;;;;;;;;;;;6329790;22;19930;-83
2023/02/03 13:50:17;;;;;;;;;;;;;;;;;;6328895;22;19902;-83
2023/02/03 13:52:44;;;;;;;;;;;;;;;;;;6331077;22;19915;-83
2023/02/03 13:55:14;;;;;;;;;;;;;;;;;;6307762;22;19891;-83
2023/02/03 13:57:40;;;;;;;;;;;;;;;;;;6333446;22;19907;-84
2023/02/03 14:00:06;;;;;;;;;;;;;;;;;;6333096;22;19958;-84
2023/02/03 14:02:36;;;;;;;;;;;;;;;;;;6308652;22;20220;-84
2023/02/03 14:05:04;;;;;;;;;;;;;;;;;;6334798;22;19907;-83
2023/02/03 14:07:33;;;;;;;;;;;;;;;;;;6335041;22;19911;-84
2023/02/03 14:10:09;;;;;;;;;;;;;;;;;;6310030;22;19913;-84
2023/02/03 14:12:35;;;;;;;;;;;;;;;;;;6334401;22;19899;-83
2023/02/03 14:15:18;;;;;;;;;;;;;;;;;;6307169;22;19903;-83
2023/02/03 14:17:47;;;;;;;;;;;;;;;;;;6279723;22;19933;-83
2023/02/03 14:20:16;;;;;;;;;;;;;;;;;;6303933;22;19903;-83
2023/02/03 14:22:45;;;;;;;;;;;;;;;;;;6275668;22;19929;-83
2023/02/03 14:25:17;;;;;;;;;;;;;;;;;;6300063;22;19955;-83
2023/02/03 14:27:44;;;;;;;;;;;;;;;;;;6308847;22;19954;-82
2023/02/03 14:30:11;;;;;;;;;;;;;;;;;;6308828;22;19953;-84
2023/02/03 14:32:48;;;;;;;;;;;;;;;;;;6309673;22;19907;-84
2023/02/03 14:35:18;;;;;;;;;;;;;;;;;;6334037;22;19907;-83
2023/02/03 14:37:44;;;;;;;;;;;;;;;;;;6336642;22;19922;-84
2023/02/03 14:40:31;;;;;;;;;;;;;;;;;;6311258;22;19910;-84
2023/02/03 14:43:07;;;;;;;;;;;;;;;;;;6336696;22;19911;-84
2023/02/03 14:48:19;;;;;;;;;;;;;;;;;;6273586;22;19920;-85
2023/02/03 14:51:02;;;;;;;;;;;;;;;;;;6300790;22;19927;-84
2023/02/03 14:53:37;;;;;;;;;;;;;;;;;;6281230;22;19912;-83
2023/02/03 14:56:02;;;;;;;;;;;;;;;;;;6297519;22;19926;-84
2023/02/03 15:01:11;;;;;;;;;;;;;;;;;;6298795;22;19919;-85
2023/02/03 15:03:44;;;;;;;;;;;;;;;;;;6272168;22;19903;-86
2023/02/03 15:06:10;;;;;;;;;;;;;;;;;;6279703;22;19903;-85
2023/02/03 15:08:39;;;;;;;;;;;;;;;;;;6305554;22;19917;-85
2023/02/03 15:11:05;;;;;;;;;;;;;;;;;;6279868;22;19899;-85
2023/02/03 15:13:38;;;;;;;;;;;;;;;;;;6302870;22;19904;-86
2023/02/03 15:16:04;;;;;;;;;;;;;;;;;;6280250;22;19899;-85
2023/02/03 15:18:35;;;;;;;;;;;;;;;;;;6251967;22;19903;-84
2023/02/03 15:21:04;;;;;;;;;;;;;;;;;;6274796;22;19891;-83
2023/02/03 15:23:37;;;;;;;;;;;;;;;;;;6273621;22;19914;-84
2023/02/03 15:26:03;;;;;;;;;;;;;;;;;;6268444;22;19907;-83
2023/02/03 15:28:36;;;;;;;;;;;;;;;;;;6239338;22;19911;-82
2023/02/03 15:31:01;;;;;;;;;;;;;;;;;;6264582;22;20029;-83
2023/02/03 15:33:27;;;;;;;;;;;;;;;;;;6270433;22;20323;-82
2023/02/03 15:35:53;;;;;;;;;;;;;;;;;;6290146;22;19982;-82
2023/02/03 15:38:18;;;;;;;;;;;;;;;;;;6265289;22;19915;-82
2023/02/03 15:40:44;;;;;;;;;;;;;;;;;;6261794;22;19914;-82
2023/02/03 15:43:10;;;;;;;;;;;;;;;;;;6290171;22;19907;-83
2023/02/03 15:45:36;;;;;;;;;;;;;;;;;;6289761;22;19941;-82
2023/02/03 15:48:02;;;;;;;;;;;;;;;;;;6237997;22;20045;-82
2023/02/03 15:50:30;;;;;;;;;;;;;;;;;;6295072;22;19946;-83
2023/02/03 15:53:00;;;;;;;;;;;;;;;;;;6225232;22;19907;-83
2023/02/03 15:55:26;;;;;;;;;;;;;;;;;;6276826;22;19957;-83
2023/02/03 15:57:57;;;;;;;;;;;;;;;;;;6278787;22;19913;-84
2023/02/03 16:00:33;;;;;;;;;;;;;;;;;;6279490;22;19921;-82
2023/02/03 16:02:59;;;;;;;;;;;;;;;;;;6252598;22;19943;-83
2023/02/03 16:05:25;;;;;;;;;;;;;;;;;;6279101;22;19898;-83
2023/02/03 16:10:19;;;;;;;;;;;;;;;;;;6281462;22;19919;-83
2023/02/03 16:12:45;;;;;;;;;;;;;;;;;;6305487;22;19940;-85
2023/02/03 16:15:13;;;;;;;;;;;;;;;;;;6261739;22;19954;-78
2023/02/03 16:17:39;;;;;;;;;;;;;;;;;;6300267;22;19903;-85
2023/02/03 16:20:04;;;;;;;;;;;;;;;;;;6284807;22;19943;-84
2023/02/03 16:22:31;;;;;;;;;;;;;;;;;;6271979;22;19907;-85
2023/02/03 16:25:01;;;;;;;;;;;;;;;;;;6283898;22;20116;-84
2023/02/03 16:27:27;;;;;;;;;;;;;;;;;;6257591;22;19899;-85
2023/02/03 16:57:18;;;;;;;;;;;;;;;;;;6295522;22;19925;-83
2023/02/03 17:13:39;;;;;;;;;;;;;;;;;;6302677;22;19967;-84
2023/02/03 17:29:41;;;;;;;;;;;;;;;;;;6296001;22;19927;-82
2023/02/03 17:43:12;;;;;;;;;;;;;;;;;;6270142;22;20307;-93
2023/02/03 17:45:37;;;;;;;;;;;;;;;;;;6227274;22;19914;-93
2023/02/03 17:48:06;;;;;;;;;;;;;;;;;;6277699;22;19931;-93
2023/02/03 17:50:31;;;;;;;;;;;;;;;;;;6225097;22;19950;-91
2023/02/03 17:52:57;;;;;;;;;;;;;;;;;;6276271;22;19908;-93
2023/02/03 17:55:22;;;;;;;;;;;;;;;;;;6251249;22;19908;-92
2023/02/03 17:57:51;;;;;;;;;;;;;;;;;;6250931;22;19907;-91
2023/02/03 18:00:16;;;;;;;;;;;;;;;;;;6250490;22;19907;-92
2023/02/03 18:02:42;;;;;;;;;;;;;;;;;;6275683;22;19907;-91
2023/02/03 18:05:10;;;;;;;;;;;;;;;;;;6275218;22;19957;-91
2023/02/03 18:07:36;;;;;;;;;;;;;;;;;;6248899;22;19911;-92
2023/02/03 18:10:04;;;;;;;;;;;;;;;;;;6275532;22;19998;-91
2023/02/03 18:12:29;;;;;;;;;;;;;;;;;;6224948;22;19908;-91
2023/02/03 18:14:55;;;;;;;;;;;;;;;;;;6249798;22;19912;-92
2023/02/03 18:17:21;;;;;;;;;;;;;;;;;;6250353;22;20267;-92
2023/02/03 18:19:47;;;;;;;;;;;;;;;;;;6275527;22;19941;-93
2023/02/03 18:22:14;;;;;;;;;;;;;;;;;;6225188;22;19903;-91
2023/02/03 18:24:43;;;;;;;;;;;;;;;;;;6224857;22;19907;-94
2023/02/03 18:27:15;;;;;;;;;;;;;;;;;;6277017;22;19907;-92
2023/02/03 18:29:41;;;;;;;;;;;;;;;;;;6251167;22;19938;-92
2023/02/03 18:32:07;;;;;;;;;;;;;;;;;;6250493;22;19915;-92
2023/02/03 18:34:35;;;;;;;;;;;;;;;;;;6250730;22;20340;-92
2023/02/03 18:37:01;;;;;;;;;;;;;;;;;;6223793;22;19907;-91
2023/02/03 18:39:30;;;;;;;;;;;;;;;;;;6224848;22;19986;-91
2023/02/03 18:41:55;;;;;;;;;;;;;;;;;;6249822;22;19918;-92
2023/02/03 18:44:21;;;;;;;;;;;;;;;;;;6275653;22;19915;-93
2023/02/03 18:46:49;;;;;;;;;;;;;;;;;;6225168;22;19908;-93
2023/02/03 18:49:26;;;;;;;;;;;;;;;;;;6278085;22;20390;-92
2023/02/03 18:52:02;;;;;;;;;;;;;;;;;;6275899;22;19985;-91
2023/02/03 18:54:31;;;;;;;;;;;;;;;;;;6276332;22;19908;-93
2023/02/03 18:56:57;;;;;;;;;;;;;;;;;;6277928;22;20325;-93
2023/02/03 18:59:23;;;;;;;;;;;;;;;;;;6225997;22;19907;-93
2023/02/03 19:08:16;;;;;;;;;;;;;;;;;;6213258;23;20357;-93
2023/02/03 19:11:29;;;;;;;;;;;;;;;;;;6275842;22;20093;-92
2023/02/03 19:13:54;;;;;;;;;;;;;;;;;;6250028;22;19937;-93
2023/02/03 19:16:22;;;;;;;;;;;;;;;;;;6274797;22;19938;-92
2023/02/03 19:19:08;;;;;;;;;;;;;;;;;;6276907;22;19914;-90
2023/02/03 19:21:33;;;;;;;;;;;;;;;;;;6276011;22;20310;-91
2023/02/03 19:24:02;;;;;;;;;;;;;;;;;;6250061;22;20244;-93
2023/02/03 19:26:29;;;;;;;;;;;;;;;;;;6224373;22;19923;-93
2023/02/03 19:28:55;;;;;;;;;;;;;;;;;;6224730;22;19912;-90
2023/02/03 19:31:21;;;;;;;;;;;;;;;;;;6252259;22;20363;-92
2023/02/03 19:33:47;;;;;;;;;;;;;;;;;;6275878;22;19911;-92
2023/02/03 19:36:12;;;;;;;;;;;;;;;;;;6274833;22;19957;-91
2023/02/03 19:38:38;;;;;;;;;;;;;;;;;;6226390;22;20275;-91
2023/02/03 19:41:04;;;;;;;;;;;;;;;;;;6250839;22;19978;-91
2023/02/03 19:43:29;;;;;;;;;;;;;;;;;;6250508;22;19934;-91
2023/02/03 19:45:55;;;;;;;;;;;;;;;;;;6225063;22;19907;-90
2023/02/03 19:48:20;;;;;;;;;;;;;;;;;;6275803;22;19907;-89
2023/02/03 19:50:46;;;;;;;;;;;;;;;;;;6277380;22;19911;-92
2023/02/03 19:53:12;;;;;;;;;;;;;;;;;;6276559;22;20259;-89
2023/02/03 19:59:06;;;;;;;;;;;;;;;;;;6164644;23;19908;-92
2023/02/03 20:01:34;;;;;;;;;;;;;;;;;;6250878;22;19907;-93
2023/02/03 20:04:03;;;;;;;;;;;;;;;;;;6250887;22;20367;-91